Time;durP1;ratioP1;P1;durP2;ratioP2;P2;SDS_P1;SDS_P2;PMS_P1;PMS_P2;Temp;Humidity;BMP_temperature;BMP_pressure;BME280_temperature;BME280_humidity;BME280_pressure;Samples;Min_cycle;Max_cycle;Signal;HPM_P1;HPM_P2
2022/01/01 00:01:42;;;;;;;1.85;1.10;;;24.90;83.50;;;;;;5071647;28;20067;-53
2022/01/01 00:04:10;;;;;;;1.65;1.00;;;24.90;83.40;;;;;;5072621;28;20451;-54
2022/01/01 00:06:38;;;;;;;2.13;1.00;;;25.00;84.00;;;;;;5072677;28;20024;-58
2022/01/01 00:09:06;;;;;;;1.95;0.75;;;25.00;83.00;;;;;;5072609;28;20472;-60
2022/01/01 00:11:33;;;;;;;4.20;1.30;;;25.10;82.90;;;;;;5072744;28;20048;-59
2022/01/01 00:14:00;;;;;;;4.80;1.75;;;25.20;82.70;;;;;;5072198;28;20089;-59
2022/01/01 00:16:28;;;;;;;4.57;1.38;;;25.20;82.10;;;;;;5072914;28;20025;-57
2022/01/01 00:18:57;;;;;;;9.48;1.77;;;25.30;81.90;;;;;;5072770;28;20030;-62
2022/01/01 00:21:25;;;;;;;1.63;0.90;;;25.30;81.80;;;;;;5072537;28;20025;-57
2022/01/01 00:23:52;;;;;;;3.47;1.10;;;25.30;82.00;;;;;;5072213;28;20031;-54
2022/01/01 00:26:20;;;;;;;2.42;1.23;;;25.50;81.50;;;;;;5072767;28;20028;-55
2022/01/01 00:28:48;;;;;;;4.15;1.30;;;25.40;81.60;;;;;;5072547;28;20036;-58
2022/01/01 00:31:15;;;;;;;2.60;0.80;;;25.40;81.80;;;;;;5072522;28;20063;-58
2022/01/01 00:33:43;;;;;;;2.13;1.17;;;25.50;81.50;;;;;;5072150;28;20111;-58
2022/01/01 00:36:10;;;;;;;3.22;1.02;;;25.50;81.30;;;;;;5072274;28;20025;-58
2022/01/01 00:38:37;;;;;;;2.17;1.17;;;25.50;81.20;;;;;;5072500;28;20367;-55
2022/01/01 00:41:05;;;;;;;4.05;1.25;;;25.50;81.40;;;;;;5072645;28;20021;-54
2022/01/01 00:43:32;;;;;;;2.55;1.00;;;25.60;81.30;;;;;;5071650;28;20025;-55
2022/01/01 00:45:59;;;;;;;2.15;1.10;;;25.70;81.00;;;;;;5071470;28;20048;-56
2022/01/01 00:48:27;;;;;;;2.78;0.77;;;25.70;80.60;;;;;;5072134;28;20021;-55
2022/01/01 00:50:54;;;;;;;2.42;1.10;;;25.80;80.50;;;;;;5075881;28;20025;-60
2022/01/01 00:53:21;;;;;;;2.05;0.88;;;25.80;80.30;;;;;;5075782;28;20029;-55
2022/01/01 00:55:49;;;;;;;1.95;0.90;;;25.70;80.70;;;;;;5075689;28;20044;-58
2022/01/01 00:58:16;;;;;;;2.67;0.98;;;25.70;81.00;;;;;;5075719;28;20025;-60
2022/01/01 01:00:44;;;;;;;2.95;0.90;;;25.70;81.10;;;;;;5075554;28;20030;-53
2022/01/01 01:03:12;;;;;;;2.97;1.30;;;25.80;81.10;;;;;;5075635;28;20099;-59
2022/01/01 01:05:41;;;;;;;2.72;0.90;;;25.90;80.90;;;;;;5074296;28;20020;-58
2022/01/01 01:08:09;;;;;;;2.03;0.93;;;25.90;80.60;;;;;;5074700;28;20021;-54
2022/01/01 01:10:38;;;;;;;3.47;1.10;;;25.90;80.80;;;;;;5075389;28;20293;-56
2022/01/01 01:13:06;;;;;;;1.60;0.98;;;25.90;80.70;;;;;;5075125;28;20025;-60
2022/01/01 01:15:34;;;;;;;3.60;1.17;;;25.90;80.70;;;;;;5075616;28;20028;-60
2022/01/01 01:18:04;;;;;;;3.67;1.50;;;25.90;81.10;;;;;;5075059;28;20043;-58
2022/01/01 01:20:32;;;;;;;2.63;1.02;;;25.90;80.70;;;;;;5075352;28;20025;-58
2022/01/01 01:23:00;;;;;;;5.00;1.08;;;25.90;80.50;;;;;;5075411;28;20029;-56
2022/01/01 01:25:37;;;;;;;1.15;0.90;;;26.00;80.40;;;;;;5074995;28;20024;-61
2022/01/01 01:28:08;;;;;;;5.03;1.30;;;26.00;80.60;;;;;;5074899;28;20482;-59
2022/01/01 01:30:39;;;;;;;2.72;1.40;;;26.10;80.30;;;;;;5074154;28;20134;-59
2022/01/01 01:33:08;;;;;;;2.50;1.00;;;26.10;80.20;;;;;;5074702;28;20090;-57
2022/01/01 01:35:36;;;;;;;4.10;1.48;;;26.10;80.40;;;;;;5074848;28;20044;-59
2022/01/01 01:38:04;;;;;;;2.10;1.17;;;26.10;80.40;;;;;;5074593;28;20475;-59
2022/01/01 01:40:31;;;;;;;3.58;1.30;;;26.20;80.00;;;;;;5073711;28;20069;-53
2022/01/01 01:43:00;;;;;;;2.97;1.38;;;26.10;80.00;;;;;;5074501;28;20024;-58
2022/01/01 01:45:28;;;;;;;2.13;1.20;;;26.20;79.80;;;;;;5074944;28;20017;-57
2022/01/01 01:47:59;;;;;;;2.40;0.95;;;26.20;79.70;;;;;;5074596;28;20024;-58
2022/01/01 01:50:26;;;;;;;1.75;0.90;;;26.30;79.80;;;;;;5074984;28;20020;-58
2022/01/01 01:52:58;;;;;;;2.10;1.02;;;26.20;79.60;;;;;;5074730;28;20471;-57
2022/01/01 01:55:29;;;;;;;1.40;0.65;;;26.30;79.80;;;;;;5074069;28;20499;-58
2022/01/01 01:57:57;;;;;;;6.57;1.02;;;26.20;80.00;;;;;;5074467;28;20017;-56
2022/01/01 02:00:57;;;;;;;2.85;1.00;;;26.30;79.90;;;;;;5073044;28;20029;-59
2022/01/01 02:03:21;;;;;;;2.53;0.95;;;26.40;79.50;;;;;;5074436;28;20060;-57
2022/01/01 02:05:49;;;;;;;2.50;1.10;;;26.40;79.80;;;;;;5074428;28;20032;-60
2022/01/01 02:08:18;;;;;;;2.50;0.80;;;26.40;79.70;;;;;;5073887;28;20028;-60
2022/01/01 02:10:49;;;;;;;4.38;1.02;;;26.40;79.50;;;;;;5074271;28;20071;-59
2022/01/01 02:13:22;;;;;;;3.90;1.50;;;26.50;79.30;;;;;;5074266;28;20102;-59
2022/01/01 02:18:21;;;;;;;3.72;1.27;;;26.40;79.20;;;;;;5073516;28;20041;-60
2022/01/01 02:20:51;;;;;;;2.22;1.00;;;26.40;79.40;;;;;;5074200;28;20034;-59
2022/01/01 02:23:25;;;;;;;4.43;1.38;;;26.50;79.20;;;;;;5073596;28;20093;-61
2022/01/01 02:25:54;;;;;;;2.08;0.60;;;26.50;79.00;;;;;;5073313;28;20107;-59
2022/01/01 02:28:23;;;;;;;1.95;0.73;;;26.60;79.00;;;;;;5073980;28;20025;-60
2022/01/01 02:30:50;;;;;;;2.88;0.90;;;26.60;78.60;;;;;;5073850;28;20032;-58
2022/01/01 02:33:19;;;;;;;6.18;1.27;;;26.60;78.70;;;;;;5073659;28;20089;-57
2022/01/01 02:35:47;;;;;;;2.05;0.85;;;26.60;78.70;;;;;;5073665;28;20016;-54
2022/01/01 02:38:18;;;;;;;2.63;0.82;;;26.60;78.40;;;;;;5071739;28;20033;-53
2022/01/01 02:40:45;;;;;;;3.95;0.77;;;26.60;79.10;;;;;;5072480;28;20020;-53
2022/01/01 02:43:12;;;;;;;1.38;0.80;;;26.60;78.10;;;;;;5073703;28;20032;-59
2022/01/01 02:45:40;;;;;;;4.13;0.93;;;26.60;78.50;;;;;;5073643;28;20113;-56
2022/01/01 02:48:07;;;;;;;1.17;0.65;;;26.60;78.60;;;;;;5073381;28;20031;-57
2022/01/01 02:50:35;;;;;;;3.50;0.85;;;26.60;79.40;;;;;;5072551;28;20024;-56
2022/01/01 02:53:02;;;;;;;5.00;1.40;;;26.60;79.50;;;;;;5073005;28;20155;-57
2022/01/01 02:55:30;;;;;;;3.33;1.20;;;26.60;79.40;;;;;;5073463;28;20056;-60
2022/01/01 02:57:57;;;;;;;2.20;0.98;;;26.60;79.50;;;;;;5073401;28;20020;-56
2022/01/01 03:00:24;;;;;;;3.38;0.82;;;26.60;79.40;;;;;;5073539;28;20035;-60
2022/01/01 03:02:52;;;;;;;3.13;1.05;;;26.60;79.50;;;;;;5072035;28;20031;-54
2022/01/01 03:05:19;;;;;;;3.28;1.20;;;26.70;79.40;;;;;;5072688;28;20024;-59
2022/01/01 03:07:47;;;;;;;3.00;0.80;;;26.70;79.20;;;;;;5073457;28;20026;-57
2022/01/01 03:10:14;;;;;;;2.95;1.13;;;26.70;79.20;;;;;;5073217;28;20116;-59
2022/01/01 03:12:41;;;;;;;2.95;0.80;;;26.60;79.50;;;;;;5072709;28;20047;-58
2022/01/01 03:15:09;;;;;;;3.50;1.20;;;26.60;79.70;;;;;;5073587;28;20434;-53
2022/01/01 03:17:37;;;;;;;1.67;0.70;;;26.50;79.90;;;;;;5073245;28;20081;-57
2022/01/01 03:20:05;;;;;;;3.58;1.00;;;26.50;80.10;;;;;;5073324;28;20016;-58
2022/01/01 03:22:33;;;;;;;4.53;1.13;;;26.50;80.20;;;;;;5073535;28;20021;-62
2022/01/01 03:25:01;;;;;;;3.08;1.00;;;26.60;80.40;;;;;;5072817;28;20107;-58
2022/01/01 03:27:31;;;;;;;4.07;1.40;;;26.50;80.40;;;;;;5073409;28;20095;-53
2022/01/01 03:29:58;;;;;;;3.97;1.10;;;26.60;79.80;;;;;;5072980;28;20420;-56
2022/01/01 03:32:26;;;;;;;3.22;1.10;;;26.70;79.70;;;;;;5073399;28;20037;-57
2022/01/01 03:34:54;;;;;;;2.97;1.00;;;26.70;79.70;;;;;;5072697;28;20036;-56
2022/01/01 03:37:21;;;;;;;3.45;1.00;;;26.70;79.60;;;;;;5072672;28;20493;-58
2022/01/01 03:39:57;;;;;;;2.28;0.73;;;26.70;79.90;;;;;;5072944;28;20475;-59
2022/01/01 03:42:25;;;;;;;1.65;0.70;;;26.70;79.80;;;;;;5073092;28;20537;-56
2022/01/01 03:44:52;;;;;;;4.95;1.15;;;26.60;79.80;;;;;;5073035;28;20024;-61
2022/01/01 03:47:19;;;;;;;3.20;1.00;;;26.70;79.60;;;;;;5073076;28;20518;-53
2022/01/01 03:49:49;;;;;;;4.03;0.98;;;26.70;79.50;;;;;;5072565;28;20017;-53
2022/01/01 03:52:17;;;;;;;2.60;0.98;;;26.70;79.40;;;;;;5073348;28;20029;-58
2022/01/01 03:54:44;;;;;;;3.85;1.00;;;26.60;79.80;;;;;;5072589;28;20052;-59
2022/01/01 03:57:12;;;;;;;2.50;0.85;;;26.70;79.80;;;;;;5072915;28;20025;-63
2022/01/01 03:59:39;;;;;;;3.20;0.50;;;26.70;79.70;;;;;;5073300;28;20430;-61
2022/01/01 04:02:07;;;;;;;4.38;0.95;;;26.60;79.50;;;;;;5072768;28;20102;-54
2022/01/01 04:04:35;;;;;;;4.18;1.20;;;26.60;79.60;;;;;;5070874;28;20039;-59
2022/01/01 04:07:10;;;;;;;3.97;1.13;;;26.60;80.00;;;;;;5073173;28;20095;-56
2022/01/01 04:09:40;;;;;;;5.18;0.88;;;26.60;80.20;;;;;;5072631;28;20032;-55
2022/01/01 04:12:08;;;;;;;5.18;1.00;;;26.50;80.50;;;;;;5072672;28;20021;-57
2022/01/01 04:14:35;;;;;;;2.03;0.70;;;26.40;80.80;;;;;;5072803;28;20442;-58
2022/01/01 04:17:03;;;;;;;3.55;0.90;;;26.40;80.90;;;;;;5073134;28;20475;-58
2022/01/01 04:19:39;;;;;;;4.18;1.25;;;26.40;81.00;;;;;;5072917;28;20066;-60
2022/01/01 04:22:21;;;;;;;3.38;1.08;;;26.40;81.10;;;;;;5072152;28;20028;-61
2022/01/01 04:24:48;;;;;;;3.55;1.08;;;26.40;81.20;;;;;;5074679;28;20044;-60
2022/01/01 04:27:22;;;;;;;1.75;0.80;;;26.50;81.20;;;;;;5076503;28;20363;-62
2022/01/01 04:29:49;;;;;;;2.85;0.68;;;26.50;81.20;;;;;;5076524;28;20028;-63
2022/01/01 04:32:18;;;;;;;3.20;0.77;;;26.40;81.60;;;;;;5076375;28;20467;-60
2022/01/01 04:34:45;;;;;;;1.80;0.80;;;26.30;81.80;;;;;;5074696;28;20077;-59
2022/01/01 04:37:20;;;;;;;4.07;1.17;;;26.40;81.70;;;;;;5075591;28;20029;-64
2022/01/01 04:39:52;;;;;;;3.38;0.95;;;26.40;82.00;;;;;;5076252;28;20047;-60
2022/01/01 04:42:19;;;;;;;;;;;26.40;82.10;;;;;;5077268;28;20031;-61
2022/01/01 04:44:46;;;;;;;4.65;1.35;;;26.40;81.90;;;;;;5076207;28;19943;-57
2022/01/01 04:47:14;;;;;;;3.30;1.02;;;26.40;82.60;;;;;;5076061;28;20017;-60
2022/01/01 04:49:41;;;;;;;2.55;1.00;;;26.40;82.20;;;;;;5076038;28;20023;-55
2022/01/01 04:52:08;;;;;;;2.10;0.77;;;26.40;82.40;;;;;;5075593;28;20021;-62
2022/01/01 04:54:40;;;;;;;3.63;0.85;;;26.40;81.90;;;;;;5075975;28;20409;-61
2022/01/01 04:57:08;;;;;;;2.17;0.80;;;26.40;81.90;;;;;;5076035;28;20036;-56
2022/01/01 04:59:36;;;;;;;6.78;1.15;;;26.40;81.80;;;;;;5075922;28;20029;-59
2022/01/01 05:02:04;;;;;;;3.53;1.10;;;26.40;81.90;;;;;;5074519;28;20028;-58
2022/01/01 05:04:32;;;;;;;4.07;0.88;;;26.40;82.10;;;;;;5075808;28;20387;-58
2022/01/01 05:06:59;;;;;;;3.95;0.88;;;26.40;82.10;;;;;;5075668;28;20025;-59
2022/01/01 05:09:28;;;;;;;1.92;0.82;;;26.40;82.00;;;;;;5075625;28;20032;-60
2022/01/01 05:11:55;;;;;;;1.80;0.88;;;26.40;81.70;;;;;;5075616;28;20060;-60
2022/01/01 05:14:23;;;;;;;2.03;0.90;;;26.50;81.60;;;;;;5075474;28;20044;-60
2022/01/01 05:16:53;;;;;;;1.75;0.90;;;26.50;81.80;;;;;;5075409;28;20111;-56
2022/01/01 05:19:21;;;;;;;2.30;1.00;;;26.50;81.40;;;;;;5074429;28;20028;-60
2022/01/01 05:21:48;;;;;;;2.78;1.00;;;26.50;81.50;;;;;;5073765;28;20025;-58
2022/01/01 05:24:18;;;;;;;6.82;1.60;;;26.50;81.60;;;;;;5075215;28;20024;-55
2022/01/01 05:26:49;;;;;;;2.40;0.80;;;26.50;81.70;;;;;;5075262;28;20024;-60
2022/01/01 05:29:17;;;;;;;3.60;1.15;;;26.60;81.60;;;;;;5074529;28;20071;-58
2022/01/01 05:31:44;;;;;;;4.63;0.70;;;26.60;81.60;;;;;;5075254;28;20078;-58
2022/01/01 05:34:12;;;;;;;3.20;1.05;;;26.60;81.70;;;;;;5074818;28;20093;-59
2022/01/01 05:36:39;;;;;;;3.20;1.30;;;26.60;81.50;;;;;;5074732;28;20363;-58
2022/01/01 05:39:08;;;;;;;2.00;0.82;;;26.60;81.70;;;;;;5075335;28;20108;-60
2022/01/01 05:41:36;;;;;;;3.92;0.90;;;26.60;81.60;;;;;;5074874;28;20158;-62
2022/01/01 05:44:04;;;;;;;4.38;1.13;;;26.50;81.80;;;;;;5074131;28;20352;-58
2022/01/01 05:46:32;;;;;;;3.35;0.80;;;26.50;82.00;;;;;;5075041;28;20024;-56
2022/01/01 05:48:59;;;;;;;3.95;1.38;;;26.50;82.10;;;;;;5073990;28;20125;-60
2022/01/01 05:51:27;;;;;;;3.40;1.20;;;26.50;82.30;;;;;;5074947;28;20159;-58
2022/01/01 05:53:57;;;;;;;3.50;1.08;;;26.60;81.90;;;;;;5074297;28;20045;-55
2022/01/01 05:56:24;;;;;;;2.17;0.80;;;26.60;82.30;;;;;;5075017;28;20024;-53
2022/01/01 05:58:52;;;;;;;2.97;0.75;;;26.60;82.10;;;;;;5073813;28;20382;-58
2022/01/01 06:01:19;;;;;;;2.92;0.90;;;26.50;82.00;;;;;;5074944;28;20021;-58
2022/01/01 06:03:47;;;;;;;4.28;0.88;;;26.50;82.20;;;;;;5075029;28;20028;-59
2022/01/01 06:06:17;;;;;;;3.85;1.27;;;26.50;82.40;;;;;;5074506;28;20103;-63
2022/01/01 06:08:45;;;;;;;2.42;0.60;;;26.50;82.10;;;;;;5075050;28;20029;-60
2022/01/01 06:11:12;;;;;;;3.05;1.20;;;26.50;82.20;;;;;;5074986;28;20027;-55
2022/01/01 06:13:42;;;;;;;2.95;0.80;;;26.50;82.10;;;;;;5074602;28;20086;-59
2022/01/01 06:16:10;;;;;;;3.03;0.93;;;26.50;82.20;;;;;;5074413;28;20028;-56
2022/01/01 06:18:40;;;;;;;5.70;1.40;;;26.40;82.50;;;;;;5075557;28;20048;-58
2022/01/01 06:21:07;;;;;;;4.10;1.85;;;26.40;82.70;;;;;;5074467;28;20020;-58
2022/01/01 06:23:37;;;;;;;3.70;1.17;;;26.40;82.80;;;;;;5074053;28;20036;-57
2022/01/01 06:26:05;;;;;;;3.72;1.27;;;26.30;82.60;;;;;;5074424;28;20459;-58
2022/01/01 06:28:32;;;;;;;3.63;0.90;;;26.30;83.20;;;;;;5074407;28;20043;-59
2022/01/01 06:31:00;;;;;;;5.03;1.10;;;26.20;83.20;;;;;;5074398;28;20031;-52
2022/01/01 06:33:27;;;;;;;5.05;1.20;;;26.20;83.60;;;;;;5073910;28;20033;-57
2022/01/01 06:35:58;;;;;;;2.15;0.82;;;26.10;83.70;;;;;;5074165;28;20025;-59
2022/01/01 06:38:25;;;;;;;4.03;0.82;;;26.10;83.80;;;;;;5073938;28;20136;-56
2022/01/01 06:40:53;;;;;;;2.28;0.88;;;26.10;84.00;;;;;;5074105;28;20028;-59
2022/01/01 06:43:23;;;;;;;1.65;0.80;;;26.00;84.00;;;;;;5074226;28;20491;-56
2022/01/01 06:45:51;;;;;;;4.53;1.25;;;26.00;84.30;;;;;;5073706;28;20028;-58
2022/01/01 06:48:18;;;;;;;3.33;1.00;;;26.10;84.50;;;;;;5073588;28;20032;-58
2022/01/01 06:50:45;;;;;;;4.38;1.00;;;25.90;84.50;;;;;;5074330;28;20084;-57
2022/01/01 06:53:13;;;;;;;2.55;0.93;;;25.90;84.70;;;;;;5073577;28;20028;-59
2022/01/01 06:55:41;;;;;;;2.95;1.17;;;25.90;84.70;;;;;;5073512;28;20040;-53
2022/01/01 06:58:08;;;;;;;6.60;1.35;;;25.90;84.90;;;;;;5073384;28;20036;-57
2022/01/01 07:00:37;;;;;;;4.13;1.25;;;25.90;85.10;;;;;;5074080;28;20024;-59
2022/01/01 07:03:05;;;;;;;3.45;1.00;;;25.80;85.20;;;;;;5073232;28;20017;-57
2022/01/01 07:05:33;;;;;;;6.45;1.63;;;25.80;85.30;;;;;;5073082;28;20037;-60
2022/01/01 07:08:00;;;;;;;4.75;1.20;;;25.80;85.60;;;;;;5073177;28;20031;-56
2022/01/01 07:10:28;;;;;;;4.32;1.65;;;25.70;85.80;;;;;;5073650;28;20033;-58
2022/01/01 07:12:55;;;;;;;2.80;1.05;;;25.70;85.90;;;;;;5072026;28;20055;-57
2022/01/01 07:15:23;;;;;;;3.03;1.35;;;25.70;85.90;;;;;;5073443;28;20035;-54
2022/01/01 07:17:50;;;;;;;2.85;0.93;;;25.70;86.00;;;;;;5073311;28;20035;-58
2022/01/01 07:20:18;;;;;;;4.78;1.27;;;25.60;86.20;;;;;;5073422;28;20028;-53
2022/01/01 07:22:46;;;;;;;3.67;1.30;;;25.60;86.30;;;;;;5072942;28;20153;-58
2022/01/01 07:25:18;;;;;;;5.13;1.67;;;25.60;86.50;;;;;;5073387;28;20021;-54
2022/01/01 07:27:46;;;;;;;6.05;1.77;;;25.50;86.50;;;;;;5073270;28;20107;-60
2022/01/01 07:30:14;;;;;;;4.97;1.50;;;25.50;86.50;;;;;;5072963;28;20029;-61
2022/01/01 07:33:01;;;;;;;4.55;1.40;;;25.50;86.70;;;;;;5072903;28;20028;-59
2022/01/01 07:35:28;;;;;;;2.97;0.95;;;25.50;86.80;;;;;;5073511;28;20024;-57
2022/01/01 07:38:00;;;;;;;5.15;1.35;;;25.50;86.80;;;;;;5072803;28;20112;-53
2022/01/01 07:40:42;;;;;;;3.60;1.13;;;25.50;87.00;;;;;;5073370;28;20033;-60
2022/01/01 07:43:27;;;;;;;7.07;1.50;;;25.50;87.00;;;;;;5073728;28;20028;-53
2022/01/01 07:45:58;;;;;;;6.22;1.60;;;25.40;87.10;;;;;;5072762;28;20052;-58
2022/01/01 07:48:26;;;;;;;5.40;1.50;;;25.40;87.20;;;;;;5055071;28;20029;-58
2022/01/01 07:51:02;;;;;;;6.50;1.67;;;25.40;87.30;;;;;;5072633;28;20028;-55
2022/01/01 07:53:29;;;;;;;4.95;1.55;;;25.40;87.30;;;;;;5073144;28;20525;-59
2022/01/01 07:55:56;;;;;;;5.28;1.80;;;25.40;87.40;;;;;;5073349;28;20031;-59
2022/01/01 07:58:24;;;;;;;5.95;1.65;;;25.40;87.50;;;;;;5074994;28;20424;-58
2022/01/01 08:00:51;;;;;;;4.70;1.30;;;25.30;87.60;;;;;;5077309;28;20062;-60
2022/01/01 08:03:18;;;;;;;5.43;1.33;;;25.30;88.20;;;;;;5077121;28;20050;-59
2022/01/01 08:05:46;;;;;;;5.15;1.80;;;25.30;87.60;;;;;;5075949;28;20383;-60
2022/01/01 08:08:13;;;;;;;5.38;1.80;;;25.30;87.70;;;;;;5075587;28;20517;-59
2022/01/01 08:10:40;;;;;;;4.97;1.30;;;25.30;87.80;;;;;;5077001;28;20037;-59
2022/01/01 08:13:09;;;;;;;4.65;1.35;;;25.20;87.90;;;;;;5077104;28;20038;-61
2022/01/01 08:15:40;;;;;;;5.68;1.48;;;25.30;88.00;;;;;;5076834;28;20028;-59
2022/01/01 08:18:07;;;;;;;6.10;1.63;;;25.20;88.00;;;;;;5076493;28;20039;-59
2022/01/01 08:20:34;;;;;;;4.40;1.33;;;25.20;88.10;;;;;;5077079;28;20090;-59
2022/01/01 08:23:15;;;;;;;4.03;1.42;;;25.20;88.10;;;;;;5076717;28;20033;-56
2022/01/01 08:25:46;;;;;;;6.82;1.95;;;25.20;88.10;;;;;;5076867;28;20399;-58
2022/01/01 08:28:41;;;;;;;4.35;1.35;;;25.20;88.20;;;;;;5076661;28;20024;-60
2022/01/01 08:31:06;;;;;;;5.13;1.30;;;25.10;88.30;;;;;;5076827;28;20108;-60
2022/01/01 08:33:33;;;;;;;7.55;1.80;;;25.20;88.90;;;;;;5076318;28;20032;-61
2022/01/01 08:36:03;;;;;;;5.85;1.65;;;25.20;88.50;;;;;;5076022;28;20021;-56
2022/01/01 08:38:32;;;;;;;5.45;1.98;;;25.20;88.50;;;;;;5076187;28;20457;-56
2022/01/01 08:41:00;;;;;;;5.88;1.70;;;25.20;88.50;;;;;;5075816;28;20030;-60
2022/01/01 08:43:28;;;;;;;5.25;1.25;;;25.10;88.50;;;;;;5076562;28;20046;-59
2022/01/01 08:45:58;;;;;;;4.22;1.23;;;25.10;88.50;;;;;;5076227;28;20043;-63
2022/01/01 08:48:25;;;;;;;5.40;1.50;;;25.10;88.60;;;;;;5075072;28;20103;-58
2022/01/01 08:50:53;;;;;;;4.50;1.30;;;25.10;88.70;;;;;;5074919;28;20132;-58
2022/01/01 08:53:32;;;;;;;4.97;1.60;;;25.10;88.70;;;;;;5076121;28;20127;-61
2022/01/01 08:56:02;;;;;;;6.47;1.52;;;25.10;88.60;;;;;;5076049;28;20134;-57
2022/01/01 08:58:29;;;;;;;5.50;1.90;;;25.10;88.80;;;;;;5076559;28;20016;-59
2022/01/01 09:01:06;;;;;;;4.88;1.27;;;25.00;88.70;;;;;;5076210;28;20031;-59
2022/01/01 09:03:35;;;;;;;10.60;2.20;;;25.00;88.80;;;;;;5075258;28;20028;-62
2022/01/01 09:06:12;;;;;;;3.97;1.70;;;25.00;88.90;;;;;;5074717;28;20028;-58
2022/01/01 09:08:49;;;;;;;5.97;1.45;;;25.00;89.00;;;;;;5076734;28;20506;-56
2022/01/01 09:11:20;;;;;;;4.78;1.50;;;25.00;89.00;;;;;;5075500;28;20029;-60
2022/01/01 09:13:47;;;;;;;5.53;1.70;;;24.90;89.00;;;;;;5075720;28;20466;-60
2022/01/01 09:16:17;;;;;;;3.42;1.05;;;24.90;89.30;;;;;;5075318;28;20031;-61
2022/01/01 09:18:47;;;;;;;4.38;1.35;;;24.90;89.30;;;;;;5076097;28;20031;-59
2022/01/01 09:21:15;;;;;;;7.65;1.63;;;24.90;89.30;;;;;;5074558;28;20024;-58
2022/01/01 09:23:43;;;;;;;4.70;1.40;;;24.90;89.50;;;;;;5075578;28;20077;-60
2022/01/01 09:26:11;;;;;;;7.60;1.33;;;24.90;89.50;;;;;;5075637;28;20423;-56
2022/01/01 09:28:50;;;;;;;6.90;1.98;;;24.90;89.80;;;;;;5075818;28;20052;-62
2022/01/01 09:31:18;;;;;;;5.18;1.50;;;24.90;89.60;;;;;;5074713;28;20467;-57
2022/01/01 09:33:46;;;;;;;3.75;1.42;;;24.90;89.70;;;;;;5075769;28;20111;-59
2022/01/01 09:36:17;;;;;;;6.03;1.58;;;24.90;89.80;;;;;;5073972;28;20379;-58
2022/01/01 09:38:46;;;;;;;4.65;1.45;;;24.80;89.80;;;;;;5075385;28;20028;-54
2022/01/01 09:41:15;;;;;;;4.95;1.33;;;24.80;89.80;;;;;;5075709;28;20442;-57
2022/01/01 09:43:43;;;;;;;5.20;1.40;;;24.80;89.80;;;;;;5075351;28;20099;-53
2022/01/01 09:46:15;;;;;;;5.63;1.52;;;24.80;89.70;;;;;;5074180;28;20020;-53
2022/01/01 09:48:43;;;;;;;4.68;1.35;;;24.80;89.90;;;;;;5075285;28;20046;-59
2022/01/01 09:51:10;;;;;;;7.72;1.98;;;24.80;90.00;;;;;;5074730;28;20028;-58
2022/01/01 09:53:47;;;;;;;6.95;1.88;;;24.80;90.00;;;;;;5075099;28;20036;-57
2022/01/01 09:56:18;;;;;;;4.95;1.67;;;24.80;89.90;;;;;;5075570;28;20447;-56
2022/01/01 09:58:45;;;;;;;5.60;1.95;;;24.70;90.00;;;;;;5075592;28;20028;-60
2022/01/01 10:01:16;;;;;;;3.83;1.17;;;24.70;90.00;;;;;;5074755;28;20020;-60
2022/01/01 10:03:49;;;;;;;6.20;1.83;;;24.70;89.90;;;;;;5075047;28;20075;-60
2022/01/01 10:06:23;;;;;;;4.85;1.20;;;24.70;90.00;;;;;;5074944;28;20028;-56
2022/01/01 10:09:06;;;;;;;3.13;1.27;;;24.70;90.00;;;;;;5074458;28;20025;-57
2022/01/01 10:11:33;;;;;;;3.25;1.38;;;24.70;90.00;;;;;;5075273;28;20421;-60
2022/01/01 10:14:08;;;;;;;4.68;1.88;;;24.60;90.00;;;;;;5073880;28;20033;-62
2022/01/01 10:16:45;;;;;;;5.38;2.25;;;24.60;90.00;;;;;;5073396;28;20055;-53
2022/01/01 10:19:22;;;;;;;7.68;1.45;;;24.70;90.10;;;;;;5075107;28;20378;-57
2022/01/01 10:21:57;;;;;;;6.03;1.90;;;24.60;90.10;;;;;;5073528;28;20395;-56
2022/01/01 10:27:42;;;;;;;6.35;1.70;;;24.60;90.10;;;;;;5074274;28;20029;-57
2022/01/01 10:29:59;;;;;;;7.88;2.55;;;24.60;90.10;;;;;;5074429;28;20113;-58
2022/01/01 10:32:26;;;;;;;6.70;1.45;;;24.60;90.10;;;;;;5074239;28;20059;-59
2022/01/01 10:34:54;;;;;;;4.15;1.50;;;24.60;90.10;;;;;;5073981;28;20033;-59
2022/01/01 10:37:29;;;;;;;4.25;1.52;;;24.60;90.10;;;;;;5074369;28;20071;-51
2022/01/01 10:39:58;;;;;;;4.45;1.88;;;24.50;90.10;;;;;;5073889;28;20074;-59
2022/01/01 10:42:26;;;;;;;5.55;1.95;;;24.50;90.10;;;;;;5073954;28;20467;-60
2022/01/01 10:44:54;;;;;;;5.10;1.42;;;24.60;90.10;;;;;;5074153;28;20020;-60
2022/01/01 10:47:29;;;;;;;4.65;1.60;;;24.50;90.10;;;;;;5073857;28;20024;-55
2022/01/01 10:52:36;;;;;;;4.22;1.48;;;24.50;90.10;;;;;;5073627;28;20048;-59
2022/01/01 10:55:07;;;;;;;4.65;1.50;;;24.50;90.20;;;;;;5074012;28;20510;-59
2022/01/01 10:57:43;;;;;;;4.45;1.60;;;24.50;90.20;;;;;;5072484;28;20028;-59
2022/01/01 11:00:21;;;;;;;3.05;1.23;;;24.50;90.20;;;;;;5072259;28;20062;-58
2022/01/01 11:02:59;;;;;;;4.00;1.27;;;24.50;90.20;;;;;;5073591;28;20029;-61
2022/01/01 11:05:31;;;;;;;5.72;1.90;;;24.50;90.30;;;;;;5073794;28;20035;-58
2022/01/01 11:07:59;;;;;;;;;;;24.50;90.30;;;;;;5074469;28;20107;-58
2022/01/01 11:10:28;;;;;;;3.80;1.60;;;24.50;90.20;;;;;;5073697;28;19911;-59
2022/01/01 11:12:57;;;;;;;5.10;1.70;;;24.50;90.30;;;;;;5073649;28;20525;-60
2022/01/01 11:15:24;;;;;;;3.53;1.42;;;24.50;90.60;;;;;;5073609;28;20424;-57
2022/01/01 11:17:52;;;;;;;3.92;1.40;;;24.40;90.30;;;;;;5073599;28;20379;-56
2022/01/01 11:20:20;;;;;;;4.20;1.23;;;24.50;90.30;;;;;;5073638;28;20037;-60
2022/01/01 11:22:49;;;;;;;3.88;1.42;;;24.50;90.30;;;;;;5073371;28;20479;-60
2022/01/01 11:25:20;;;;;;;2.90;1.25;;;24.40;90.40;;;;;;5074098;28;20028;-59
2022/01/01 11:27:49;;;;;;;3.72;1.33;;;24.50;90.40;;;;;;5072607;28;20024;-60
2022/01/01 11:30:17;;;;;;;5.82;1.67;;;24.40;90.30;;;;;;5073060;28;20408;-57
2022/01/01 11:32:55;;;;;;;9.75;1.60;;;24.50;90.30;;;;;;5072814;28;20033;-58
2022/01/01 11:35:28;;;;;;;4.05;1.23;;;24.40;90.40;;;;;;5072945;28;20099;-59
2022/01/01 11:37:58;;;;;;;5.95;1.70;;;24.40;90.40;;;;;;5073095;28;20063;-62
2022/01/01 11:40:27;;;;;;;3.97;1.40;;;24.40;90.40;;;;;;5072157;28;20052;-59
2022/01/01 11:42:54;;;;;;;6.88;1.58;;;24.40;90.50;;;;;;5072859;28;20103;-58
2022/01/01 11:45:43;;;;;;;5.95;1.73;;;24.40;90.50;;;;;;5073213;28;20044;-59
2022/01/01 11:48:41;;;;;;;3.90;1.27;;;24.40;90.50;;;;;;5072974;28;20028;-59
2022/01/01 11:51:28;;;;;;;4.30;1.40;;;24.40;90.40;;;;;;5073523;28;20035;-59
2022/01/01 11:54:20;;;;;;;2.80;0.93;;;24.40;90.50;;;;;;5072871;28;20109;-55
2022/01/01 11:56:50;;;;;;;4.05;1.30;;;24.40;90.40;;;;;;5068159;28;20075;-56
2022/01/01 11:59:44;;;;;;;5.53;1.83;;;24.40;90.50;;;;;;5073516;28;20023;-60
2022/01/01 12:02:20;;;;;;;5.20;1.83;;;24.40;90.50;;;;;;5073140;28;20032;-57
2022/01/01 12:04:55;;;;;;;3.83;1.40;;;24.30;90.50;;;;;;5073253;28;20471;-58
2022/01/01 12:07:24;;;;;;;4.55;1.00;;;24.30;90.50;;;;;;5073135;28;20440;-58
2022/01/01 12:10:07;;;;;;;3.90;1.70;;;24.30;90.70;;;;;;5073144;28;20070;-60
2022/01/01 12:12:43;;;;;;;2.65;1.15;;;24.30;90.70;;;;;;5073215;28;20026;-61
2022/01/01 12:15:38;;;;;;;4.40;1.50;;;24.30;90.60;;;;;;5072976;28;20098;-51
2022/01/01 12:18:14;;;;;;;5.20;1.52;;;24.30;90.70;;;;;;5072739;28;20031;-56
2022/01/01 12:20:50;;;;;;;4.80;1.40;;;24.30;90.70;;;;;;5072830;28;20029;-60
2022/01/01 12:23:23;;;;;;;4.03;1.30;;;24.30;90.60;;;;;;5073275;28;20348;-59
2022/01/01 12:25:54;;;;;;;5.22;1.70;;;24.30;90.80;;;;;;5072872;28;20478;-57
2022/01/01 12:28:34;;;;;;;5.32;1.55;;;24.30;90.80;;;;;;5072885;28;20016;-59
2022/01/01 12:31:56;;;;;;;3.00;1.25;;;24.30;90.70;;;;;;5072959;28;20024;-59
2022/01/01 12:34:28;;;;;;;4.32;1.45;;;24.30;90.80;;;;;;5031301;28;20029;-59
2022/01/01 12:36:56;;;;;;;3.70;1.43;;;24.30;91.10;;;;;;5031041;28;20413;-58
2022/01/01 12:39:43;;;;;;;3.40;1.20;;;24.20;90.70;;;;;;5031348;28;20274;-61
2022/01/01 12:42:29;;;;;;;7.55;1.73;;;24.30;90.80;;;;;;5050160;28;20043;-58
2022/01/01 12:45:06;;;;;;;4.88;1.60;;;24.30;90.80;;;;;;5074027;28;20108;-59
2022/01/01 12:47:42;;;;;;;3.80;1.42;;;24.20;90.90;;;;;;5076618;28;20429;-61
2022/01/01 12:50:13;;;;;;;3.95;1.20;;;24.20;90.90;;;;;;5074904;28;20024;-60
2022/01/01 12:52:40;;;;;;;4.70;1.52;;;24.20;90.90;;;;;;5076054;28;20467;-59
2022/01/01 12:55:14;;;;;;;5.00;1.60;;;24.20;91.00;;;;;;5076178;28;20063;-60
2022/01/01 12:57:47;;;;;;;4.82;1.73;;;24.20;90.90;;;;;;5075255;28;20028;-60
2022/01/01 13:00:26;;;;;;;4.80;1.48;;;24.20;91.00;;;;;;5076141;28;20024;-58
2022/01/01 13:02:58;;;;;;;3.90;1.13;;;24.20;91.00;;;;;;5075814;28;20135;-59
2022/01/01 13:05:25;;;;;;;6.80;1.67;;;24.10;91.00;;;;;;5074889;28;20060;-58
2022/01/01 13:08:03;;;;;;;4.90;1.48;;;24.20;91.00;;;;;;5075821;28;20114;-59
2022/01/01 13:10:33;;;;;;;2.97;1.20;;;24.20;91.10;;;;;;5076148;28;20048;-59
2022/01/01 13:13:06;;;;;;;5.22;2.00;;;24.10;91.00;;;;;;5075893;28;20546;-54